Strona główna
METAR-TAF:

METAR-TAF

Lotnisko :

Albenga, Włochy

Szerokość geograficzna: 44-03N, Długość geograficzna: 008-07E, wysokość: 45 m

Aktualna obserwacja pogody

Raport powstał 47 minut temu, godzina 06:50 UTC
Cisza
Temperatura 23°C
Wilgotność 89%
Ciśnienie 1020 hPa
Widzialność 10 km lub więcej
Przerywane chmury na wysokości 3500 ft

METAR: LIMG 210650Z 00000KT 9999 BKN035 23/21 Q1020

czas: 09:37 (07:37 UTC)


TAF: brakujący

Obserwacja i prognoza pogody dla ponad 4000 lotnisk (raport METAR i TAF).

Dostępne stacje oznaczono żółtymi i czerwonymi punktami na mapie.

Najedź kursorem aby zobaczyć nazwę stacji.

Kliknij aby zobaczyć obserwacje i prognozy pogody.

Aby zmienić mapę: kliknij na zielony przycisk z czarnym krzyżykiem, aby powiększyć; na zielony przycisk z myślnikiem, aby pomniejszyć; na zielone strzałki, aby przejść do map sąsiednich.


METAR-TAF: